sensor_id;sensor_type;location;lat;lon;timestamp;pressure;altitude;pressure_sealevel;temperature;humidity
18819;BME280;9537;45.594;9.294;2022-07-21T00:00:34;99743.47;;;29.70;36.09
18819;BME280;9537;45.594;9.294;2022-07-21T00:01:35;99738.84;;;29.71;36.07
18819;BME280;9537;45.594;9.294;2022-07-21T00:02:37;99741.56;;;29.71;35.71
18819;BME280;9537;45.594;9.294;2022-07-21T00:03:38;99742.16;;;29.68;35.70
18819;BME280;9537;45.594;9.294;2022-07-21T00:04:40;99738.53;;;29.72;35.32
18819;BME280;9537;45.594;9.294;2022-07-21T00:05:41;99734.22;;;29.71;35.38
18819;BME280;9537;45.594;9.294;2022-07-21T00:06:45;99738.00;;;29.70;35.12
18819;BME280;9537;45.594;9.294;2022-07-21T00:07:46;99735.53;;;29.74;34.71
18819;BME280;9537;45.594;9.294;2022-07-21T00:08:48;99728.16;;;29.74;34.21
18819;BME280;9537;45.594;9.294;2022-07-21T00:09:49;99730.09;;;29.74;34.19
18819;BME280;9537;45.594;9.294;2022-07-21T00:10:51;99733.00;;;29.77;34.21
18819;BME280;9537;45.594;9.294;2022-07-21T00:11:53;99736.53;;;29.78;34.27
18819;BME280;9537;45.594;9.294;2022-07-21T00:12:56;99734.63;;;29.78;34.30
18819;BME280;9537;45.594;9.294;2022-07-21T00:13:57;99735.13;;;29.80;34.12
18819;BME280;9537;45.594;9.294;2022-07-21T00:14:59;99733.22;;;29.81;33.82
18819;BME280;9537;45.594;9.294;2022-07-21T00:16:00;99737.34;;;29.78;33.76
18819;BME280;9537;45.594;9.294;2022-07-21T00:17:02;99740.38;;;29.77;34.04
18819;BME280;9537;45.594;9.294;2022-07-21T00:18:03;99734.63;;;29.78;34.20
18819;BME280;9537;45.594;9.294;2022-07-21T00:19:06;99734.13;;;29.76;34.21
18819;BME280;9537;45.594;9.294;2022-07-21T00:20:08;99739.25;;;29.78;34.20
18819;BME280;9537;45.594;9.294;2022-07-21T00:21:11;99733.28;;;29.76;34.03
18819;BME280;9537;45.594;9.294;2022-07-21T00:22:13;99732.50;;;29.75;34.09
18819;BME280;9537;45.594;9.294;2022-07-21T00:23:15;99730.56;;;29.76;34.12
18819;BME280;9537;45.594;9.294;2022-07-21T00:24:16;99735.41;;;29.79;34.00
18819;BME280;9537;45.594;9.294;2022-07-21T00:25:18;99734.31;;;29.80;33.69
18819;BME280;9537;45.594;9.294;2022-07-21T00:26:20;99736.25;;;29.79;34.13
18819;BME280;9537;45.594;9.294;2022-07-21T00:27:22;99734.94;;;29.77;34.01
18819;BME280;9537;45.594;9.294;2022-07-21T00:28:23;99737.84;;;29.80;33.95
18819;BME280;9537;45.594;9.294;2022-07-21T00:29:24;99735.66;;;29.82;34.00
18819;BME280;9537;45.594;9.294;2022-07-21T00:30:25;99738.66;;;29.81;33.94
18819;BME280;9537;45.594;9.294;2022-07-21T00:31:28;99737.66;;;29.77;34.40
18819;BME280;9537;45.594;9.294;2022-07-21T00:32:29;99733.00;;;29.77;34.00
18819;BME280;9537;45.594;9.294;2022-07-21T00:33:31;99734.94;;;29.77;34.04
18819;BME280;9537;45.594;9.294;2022-07-21T00:34:33;99746.09;;;29.75;33.90
18819;BME280;9537;45.594;9.294;2022-07-21T00:35:35;99742.06;;;29.73;34.16
18819;BME280;9537;45.594;9.294;2022-07-21T00:36:36;99741.56;;;29.71;33.97
18819;BME280;9537;45.594;9.294;2022-07-21T00:37:40;99740.44;;;29.72;34.00
18819;BME280;9537;45.594;9.294;2022-07-21T00:38:41;99744.28;;;29.71;34.04
18819;BME280;9537;45.594;9.294;2022-07-21T00:39:43;99738.84;;;29.71;34.63
18819;BME280;9537;45.594;9.294;2022-07-21T00:40:45;99737.00;;;29.66;34.43
18819;BME280;9537;45.594;9.294;2022-07-21T00:41:46;99745.44;;;29.64;34.30
18819;BME280;9537;45.594;9.294;2022-07-21T00:42:47;99744.13;;;29.62;34.58
18819;BME280;9537;45.594;9.294;2022-07-21T00:43:49;99738.13;;;29.65;34.73
18819;BME280;9537;45.594;9.294;2022-07-21T00:44:51;99743.28;;;29.61;34.94
18819;BME280;9537;45.594;9.294;2022-07-21T00:45:53;99746.34;;;29.60;35.00
18819;BME280;9537;45.594;9.294;2022-07-21T00:46:55;99746.63;;;29.58;35.51
18819;BME280;9537;45.594;9.294;2022-07-21T00:47:57;99748.31;;;29.54;35.63
18819;BME280;9537;45.594;9.294;2022-07-21T00:48:58;99737.72;;;29.53;35.72
18819;BME280;9537;45.594;9.294;2022-07-21T00:50:03;99757.28;;;29.55;35.79
18819;BME280;9537;45.594;9.294;2022-07-21T00:51:05;99749.19;;;29.50;35.69
18819;BME280;9537;45.594;9.294;2022-07-21T00:52:07;99751.94;;;29.50;35.76
18819;BME280;9537;45.594;9.294;2022-07-21T00:53:09;99744.16;;;29.43;35.77
18819;BME280;9537;45.594;9.294;2022-07-21T00:54:12;99750.13;;;29.45;35.85
18819;BME280;9537;45.594;9.294;2022-07-21T00:55:15;99746.88;;;29.43;35.83
18819;BME280;9537;45.594;9.294;2022-07-21T00:56:20;99738.50;;;29.39;35.63
18819;BME280;9537;45.594;9.294;2022-07-21T00:57:23;99740.91;;;29.41;35.92
18819;BME280;9537;45.594;9.294;2022-07-21T00:58:24;99737.19;;;29.37;35.82
18819;BME280;9537;45.594;9.294;2022-07-21T00:59:28;99743.13;;;29.39;35.80
18819;BME280;9537;45.594;9.294;2022-07-21T01:00:30;99737.19;;;29.37;35.63
18819;BME280;9537;45.594;9.294;2022-07-21T01:01:32;99739.38;;;29.35;35.56
18819;BME280;9537;45.594;9.294;2022-07-21T01:02:33;99730.94;;;29.36;35.27
18819;BME280;9537;45.594;9.294;2022-07-21T01:03:37;99730.63;;;29.38;35.36
18819;BME280;9537;45.594;9.294;2022-07-21T01:04:40;99726.28;;;29.37;35.43
18819;BME280;9537;45.594;9.294;2022-07-21T01:05:41;99730.63;;;29.38;35.81
18819;BME280;9537;45.594;9.294;2022-07-21T01:06:43;99733.94;;;29.35;35.46
18819;BME280;9537;45.594;9.294;2022-07-21T01:07:46;99724.09;;;29.39;35.38
18819;BME280;9537;45.594;9.294;2022-07-21T01:08:50;99724.38;;;29.37;35.55
18819;BME280;9537;45.594;9.294;2022-07-21T01:09:51;99731.22;;;29.35;35.94
18819;BME280;9537;45.594;9.294;2022-07-21T01:10:53;99728.50;;;29.35;35.89
18819;BME280;9537;45.594;9.294;2022-07-21T01:11:55;99729.41;;;29.30;36.24
18819;BME280;9537;45.594;9.294;2022-07-21T01:12:58;99732.13;;;29.30;36.08
18819;BME280;9537;45.594;9.294;2022-07-21T01:13:59;99734.53;;;29.32;36.46
18819;BME280;9537;45.594;9.294;2022-07-21T01:15:01;99734.00;;;29.30;36.19
18819;BME280;9537;45.594;9.294;2022-07-21T01:16:03;99737.25;;;29.32;36.30
18819;BME280;9537;45.594;9.294;2022-07-21T01:17:05;99731.59;;;29.28;36.33
18819;BME280;9537;45.594;9.294;2022-07-21T01:18:06;99727.81;;;29.24;36.04
18819;BME280;9537;45.594;9.294;2022-07-21T01:19:08;99731.66;;;29.23;36.03
18819;BME280;9537;45.594;9.294;2022-07-21T01:20:12;99735.19;;;29.24;35.80
18819;BME280;9537;45.594;9.294;2022-07-21T01:21:28;99731.25;;;29.16;36.14
18819;BME280;9537;45.594;9.294;2022-07-21T01:22:31;99730.41;;;29.15;36.10
18819;BME280;9537;45.594;9.294;2022-07-21T01:23:33;99735.34;;;29.13;36.70
18819;BME280;9537;45.594;9.294;2022-07-21T01:24:35;99732.03;;;29.16;36.64
18819;BME280;9537;45.594;9.294;2022-07-21T01:25:36;99733.44;;;29.14;36.46
18819;BME280;9537;45.594;9.294;2022-07-21T01:26:42;99728.28;;;29.12;36.45
18819;BME280;9537;45.594;9.294;2022-07-21T01:27:43;99731.31;;;29.11;36.47
18819;BME280;9537;45.594;9.294;2022-07-21T01:28:45;99728.81;;;29.14;36.38
18819;BME280;9537;45.594;9.294;2022-07-21T01:29:46;99733.66;;;29.17;35.68
18819;BME280;9537;45.594;9.294;2022-07-21T01:30:48;99729.91;;;29.13;35.50
18819;BME280;9537;45.594;9.294;2022-07-21T01:31:50;99725.56;;;29.12;35.53
18819;BME280;9537;45.594;9.294;2022-07-21T01:32:51;99725.56;;;29.12;35.53
18819;BME280;9537;45.594;9.294;2022-07-21T01:33:53;99732.69;;;29.08;35.53
18819;BME280;9537;45.594;9.294;2022-07-21T01:34:54;99723.75;;;29.08;35.48
18819;BME280;9537;45.594;9.294;2022-07-21T01:35:56;99722.91;;;29.07;35.87
18819;BME280;9537;45.594;9.294;2022-07-21T01:36:58;99725.63;;;29.07;35.81
18819;BME280;9537;45.594;9.294;2022-07-21T01:38:00;99722.09;;;29.07;36.08
18819;BME280;9537;45.594;9.294;2022-07-21T01:39:02;99714.81;;;29.02;36.05
18819;BME280;9537;45.594;9.294;2022-07-21T01:40:22;99718.88;;;29.05;35.89
18819;BME280;9537;45.594;9.294;2022-07-21T01:41:42;99725.94;;;29.06;36.01
18819;BME280;9537;45.594;9.294;2022-07-21T01:42:44;99725.69;;;29.02;36.16
18819;BME280;9537;45.594;9.294;2022-07-21T01:43:45;99721.66;;;29.00;36.42
18819;BME280;9537;45.594;9.294;2022-07-21T01:44:48;99716.78;;;28.96;36.54
18819;BME280;9537;45.594;9.294;2022-07-21T01:45:49;99724.69;;;28.93;36.90
18819;BME280;9537;45.594;9.294;2022-07-21T01:46:52;99719.78;;;28.95;36.94
18819;BME280;9537;45.594;9.294;2022-07-21T01:47:53;99722.72;;;28.98;36.84
18819;BME280;9537;45.594;9.294;2022-07-21T01:48:56;99718.72;;;28.96;36.88
18819;BME280;9537;45.594;9.294;2022-07-21T01:49:57;99719.84;;;28.90;36.99
18819;BME280;9537;45.594;9.294;2022-07-21T01:50:59;99721.56;;;28.86;36.87
18819;BME280;9537;45.594;9.294;2022-07-21T01:52:01;99712.81;;;28.89;36.95
18819;BME280;9537;45.594;9.294;2022-07-21T01:53:03;99719.06;;;28.89;36.85
18819;BME280;9537;45.594;9.294;2022-07-21T01:54:06;99716.66;;;28.88;36.59
18819;BME280;9537;45.594;9.294;2022-07-21T01:55:07;99716.13;;;28.86;36.68
18819;BME280;9537;45.594;9.294;2022-07-21T01:56:09;99715.31;;;28.85;36.97
18819;BME280;9537;45.594;9.294;2022-07-21T01:57:10;99712.06;;;28.83;36.77
18819;BME280;9537;45.594;9.294;2022-07-21T01:58:12;99714.25;;;28.81;36.84
18819;BME280;9537;45.594;9.294;2022-07-21T01:59:14;99721.09;;;28.79;37.05
18819;BME280;9537;45.594;9.294;2022-07-21T02:00:16;99722.19;;;28.78;37.07
18819;BME280;9537;45.594;9.294;2022-07-21T02:01:19;99718.16;;;28.75;37.17
18819;BME280;9537;45.594;9.294;2022-07-21T02:02:21;99720.34;;;28.73;37.30
18819;BME280;9537;45.594;9.294;2022-07-21T02:03:23;99722.78;;;28.74;37.25
18819;BME280;9537;45.594;9.294;2022-07-21T02:04:24;99717.34;;;28.74;37.45
18819;BME280;9537;45.594;9.294;2022-07-21T02:05:26;99726.31;;;28.75;37.45
18819;BME280;9537;45.594;9.294;2022-07-21T02:06:28;99713.63;;;28.70;37.48
18819;BME280;9537;45.594;9.294;2022-07-21T02:07:32;99718.00;;;28.66;37.50
18819;BME280;9537;45.594;9.294;2022-07-21T02:08:33;99720.50;;;28.63;37.39
18819;BME280;9537;45.594;9.294;2022-07-21T02:09:35;99722.16;;;28.59;37.49
18819;BME280;9537;45.594;9.294;2022-07-21T02:10:36;99715.13;;;28.58;37.44
18819;BME280;9537;45.594;9.294;2022-07-21T02:11:38;99711.88;;;28.56;37.65
18819;BME280;9537;45.594;9.294;2022-07-21T02:12:39;99714.31;;;28.57;37.38
18819;BME280;9537;45.594;9.294;2022-07-21T02:13:41;99714.31;;;28.57;37.34
18819;BME280;9537;45.594;9.294;2022-07-21T02:14:42;99707.28;;;28.56;37.44
18819;BME280;9537;45.594;9.294;2022-07-21T02:15:44;99711.97;;;28.50;37.57
18819;BME280;9537;45.594;9.294;2022-07-21T02:16:45;99710.63;;;28.48;37.67
18819;BME280;9537;45.594;9.294;2022-07-21T02:17:47;99717.16;;;28.47;38.05
18819;BME280;9537;45.594;9.294;2022-07-21T02:18:48;99711.22;;;28.45;38.10
18819;BME280;9537;45.594;9.294;2022-07-21T02:19:50;99710.94;;;28.41;38.32
18819;BME280;9537;45.594;9.294;2022-07-21T02:20:51;99708.22;;;28.41;38.17
18819;BME280;9537;45.594;9.294;2022-07-21T02:21:55;99708.78;;;28.38;37.68
18819;BME280;9537;45.594;9.294;2022-07-21T02:22:57;99707.47;;;28.36;37.99
18819;BME280;9537;45.594;9.294;2022-07-21T02:23:59;99703.72;;;28.32;37.98
18819;BME280;9537;45.594;9.294;2022-07-21T02:25:00;99705.84;;;28.35;37.67
18819;BME280;9537;45.594;9.294;2022-07-21T02:26:02;99707.78;;;28.34;37.94
18819;BME280;9537;45.594;9.294;2022-07-21T02:27:03;99707.53;;;28.30;37.87
18819;BME280;9537;45.594;9.294;2022-07-21T02:28:05;99705.63;;;28.31;37.71
18819;BME280;9537;45.594;9.294;2022-07-21T02:29:06;99700.47;;;28.29;38.10
18819;BME280;9537;45.594;9.294;2022-07-21T02:30:09;99699.63;;;28.34;37.97
18819;BME280;9537;45.594;9.294;2022-07-21T02:31:10;99712.91;;;28.36;37.79
18819;BME280;9537;45.594;9.294;2022-07-21T02:32:12;99699.41;;;28.30;38.08
18819;BME280;9537;45.594;9.294;2022-07-21T02:33:14;99703.50;;;28.28;38.44
18819;BME280;9537;45.594;9.294;2022-07-21T02:34:16;99700.78;;;28.28;38.30
18819;BME280;9537;45.594;9.294;2022-07-21T02:35:18;99701.06;;;28.26;38.48
18819;BME280;9537;45.594;9.294;2022-07-21T02:36:19;99700.25;;;28.26;38.50
18819;BME280;9537;45.594;9.294;2022-07-21T02:37:21;99706.53;;;28.21;38.38
18819;BME280;9537;45.594;9.294;2022-07-21T02:38:24;99701.47;;;28.15;38.33
18819;BME280;9537;45.594;9.294;2022-07-21T02:39:26;99694.19;;;28.10;38.70
18819;BME280;9537;45.594;9.294;2022-07-21T02:40:27;99704.47;;;28.13;38.79
18819;BME280;9537;45.594;9.294;2022-07-21T02:41:29;99697.41;;;28.12;39.07
18819;BME280;9537;45.594;9.294;2022-07-21T02:42:31;99698.78;;;28.10;39.12
18819;BME280;9537;45.594;9.294;2022-07-21T02:43:32;99697.75;;;28.05;39.11
18819;BME280;9537;45.594;9.294;2022-07-21T02:44:34;99700.75;;;28.04;39.25
18819;BME280;9537;45.594;9.294;2022-07-21T02:45:37;99696.72;;;28.01;39.25
18819;BME280;9537;45.594;9.294;2022-07-21T02:46:38;99697.22;;;28.03;39.15
18819;BME280;9537;45.594;9.294;2022-07-21T02:47:50;99694.34;;;27.95;39.35
18819;BME280;9537;45.594;9.294;2022-07-21T02:48:51;99698.69;;;27.96;39.52
18819;BME280;9537;45.594;9.294;2022-07-21T02:49:53;99696.25;;;27.94;39.59
18819;BME280;9537;45.594;9.294;2022-07-21T02:50:54;99686.50;;;27.93;39.54
18819;BME280;9537;45.594;9.294;2022-07-21T02:51:57;99692.72;;;27.94;39.58
18819;BME280;9537;45.594;9.294;2022-07-21T02:52:59;99695.13;;;27.95;39.83
18819;BME280;9537;45.594;9.294;2022-07-21T02:54:03;99694.91;;;27.92;40.06
18819;BME280;9537;45.594;9.294;2022-07-21T02:55:05;99691.66;;;27.90;40.17
18819;BME280;9537;45.594;9.294;2022-07-21T02:56:07;99691.75;;;27.84;40.36
18819;BME280;9537;45.594;9.294;2022-07-21T02:57:08;99682.50;;;27.85;40.41
18819;BME280;9537;45.594;9.294;2022-07-21T02:58:12;99689.31;;;27.83;40.25
18819;BME280;9537;45.594;9.294;2022-07-21T02:59:13;99684.69;;;27.83;40.42
18819;BME280;9537;45.594;9.294;2022-07-21T03:00:15;99685.75;;;27.88;40.41
18819;BME280;9537;45.594;9.294;2022-07-21T03:01:16;99685.75;;;27.88;40.17
18819;BME280;9537;45.594;9.294;2022-07-21T03:02:19;99685.97;;;27.91;39.78
18819;BME280;9537;45.594;9.294;2022-07-21T03:03:22;99683.25;;;27.91;39.79
18819;BME280;9537;45.594;9.294;2022-07-21T03:04:25;99682.72;;;27.89;39.95
18819;BME280;9537;45.594;9.294;2022-07-21T03:05:26;99683.28;;;27.86;39.81
18819;BME280;9537;45.594;9.294;2022-07-21T03:06:29;99681.97;;;27.83;40.05
18819;BME280;9537;45.594;9.294;2022-07-21T03:07:30;99684.97;;;27.82;40.02
18819;BME280;9537;45.594;9.294;2022-07-21T03:08:32;99686.31;;;27.84;39.67
18819;BME280;9537;45.594;9.294;2022-07-21T03:09:35;99682.84;;;27.79;40.02
18819;BME280;9537;45.594;9.294;2022-07-21T03:10:38;99683.09;;;27.77;39.92
18819;BME280;9537;45.594;9.294;2022-07-21T03:11:39;99682.56;;;27.75;40.05
18819;BME280;9537;45.594;9.294;2022-07-21T03:12:42;99676.63;;;27.73;40.49
18819;BME280;9537;45.594;9.294;2022-07-21T03:13:43;99680.75;;;27.66;40.19
18819;BME280;9537;45.594;9.294;2022-07-21T03:14:45;99682.09;;;27.68;40.57
18819;BME280;9537;45.594;9.294;2022-07-21T03:15:46;99671.78;;;27.70;40.57
18819;BME280;9537;45.594;9.294;2022-07-21T03:16:48;99685.38;;;27.65;40.88
18819;BME280;9537;45.594;9.294;2022-07-21T03:17:49;99686.78;;;27.57;40.76
18819;BME280;9537;45.594;9.294;2022-07-21T03:18:51;99684.88;;;27.58;40.96
18819;BME280;9537;45.594;9.294;2022-07-21T03:19:52;99685.97;;;27.57;40.78
18819;BME280;9537;45.594;9.294;2022-07-21T03:20:54;99680.03;;;27.55;40.84
18819;BME280;9537;45.594;9.294;2022-07-21T03:21:55;99677.31;;;27.55;40.87
18819;BME280;9537;45.594;9.294;2022-07-21T03:22:58;99676.50;;;27.54;40.95
18819;BME280;9537;45.594;9.294;2022-07-21T03:23:59;99680.31;;;27.53;41.30
18819;BME280;9537;45.594;9.294;2022-07-21T03:25:03;99681.69;;;27.51;40.92
18819;BME280;9537;45.594;9.294;2022-07-21T03:26:04;99679.53;;;27.53;40.79
18819;BME280;9537;45.594;9.294;2022-07-21T03:27:06;99683.88;;;27.49;40.71
18819;BME280;9537;45.594;9.294;2022-07-21T03:28:07;99682.78;;;27.50;40.74
18819;BME280;9537;45.594;9.294;2022-07-21T03:29:09;99685.47;;;27.50;40.81
18819;BME280;9537;45.594;9.294;2022-07-21T03:30:11;99683.91;;;27.44;40.86
18819;BME280;9537;45.594;9.294;2022-07-21T03:31:13;99686.94;;;27.42;40.98
18819;BME280;9537;45.594;9.294;2022-07-21T03:32:14;99685.59;;;27.39;41.16
18819;BME280;9537;45.594;9.294;2022-07-21T03:33:16;99681.00;;;27.35;41.03
18819;BME280;9537;45.594;9.294;2022-07-21T03:34:17;99681.88;;;27.30;41.18
18819;BME280;9537;45.594;9.294;2022-07-21T03:35:19;99688.91;;;27.31;41.21
18819;BME280;9537;45.594;9.294;2022-07-21T03:36:20;99690.81;;;27.31;41.20
18819;BME280;9537;45.594;9.294;2022-07-21T03:37:22;99684.03;;;27.28;41.58
18819;BME280;9537;45.594;9.294;2022-07-21T03:38:24;99689.22;;;27.25;41.38
18819;BME280;9537;45.594;9.294;2022-07-21T03:39:26;99684.88;;;27.24;41.67
18819;BME280;9537;45.594;9.294;2022-07-21T03:40:30;99688.97;;;27.21;41.47
18819;BME280;9537;45.594;9.294;2022-07-21T03:41:32;99693.59;;;27.21;41.57
18819;BME280;9537;45.594;9.294;2022-07-21T03:42:33;99688.72;;;27.17;41.83
18819;BME280;9537;45.594;9.294;2022-07-21T03:43:35;99684.63;;;27.15;41.56
18819;BME280;9537;45.594;9.294;2022-07-21T03:44:36;99690.06;;;27.15;42.09
18819;BME280;9537;45.594;9.294;2022-07-21T03:45:38;99690.06;;;27.15;41.90
18819;BME280;9537;45.594;9.294;2022-07-21T03:46:40;99682.22;;;27.18;41.40
18819;BME280;9537;45.594;9.294;2022-07-21T03:47:41;99690.06;;;27.15;41.98
18819;BME280;9537;45.594;9.294;2022-07-21T03:48:43;99685.22;;;27.12;41.61
18819;BME280;9537;45.594;9.294;2022-07-21T03:49:44;99689.81;;;27.11;41.72
18819;BME280;9537;45.594;9.294;2022-07-21T03:50:46;99692.81;;;27.10;41.88
18819;BME280;9537;45.594;9.294;2022-07-21T03:51:48;99689.59;;;27.08;41.81
18819;BME280;9537;45.594;9.294;2022-07-21T03:52:49;99689.59;;;27.08;41.66
18819;BME280;9537;45.594;9.294;2022-07-21T03:53:51;99696.13;;;27.02;41.85
18819;BME280;9537;45.594;9.294;2022-07-21T03:54:54;99688.00;;;27.02;41.89
18819;BME280;9537;45.594;9.294;2022-07-21T03:56:09;99691.50;;;27.02;41.64
18819;BME280;9537;45.594;9.294;2022-07-21T03:57:11;99690.19;;;27.00;41.93
18819;BME280;9537;45.594;9.294;2022-07-21T03:58:12;99692.09;;;26.99;41.79
18819;BME280;9537;45.594;9.294;2022-07-21T03:59:15;99699.41;;;26.99;41.54
18819;BME280;9537;45.594;9.294;2022-07-21T04:00:17;99695.63;;;26.94;42.04
18819;BME280;9537;45.594;9.294;2022-07-21T04:01:20;99695.38;;;26.91;42.42
18819;BME280;9537;45.594;9.294;2022-07-21T04:02:21;99692.66;;;26.91;42.05
18819;BME280;9537;45.594;9.294;2022-07-21T04:03:22;99696.19;;;26.86;42.22
18819;BME280;9537;45.594;9.294;2022-07-21T04:04:23;99694.03;;;26.88;42.43
18819;BME280;9537;45.594;9.294;2022-07-21T04:05:26;99697.84;;;26.87;42.10
18819;BME280;9537;45.594;9.294;2022-07-21T04:06:27;99701.34;;;26.88;42.28
18819;BME280;9537;45.594;9.294;2022-07-21T04:07:29;99701.63;;;26.86;42.81
18819;BME280;9537;45.594;9.294;2022-07-21T04:08:30;99696.75;;;26.88;42.17
18819;BME280;9537;45.594;9.294;2022-07-21T04:09:32;99697.22;;;26.95;42.45
18819;BME280;9537;45.594;9.294;2022-07-21T04:10:35;99698.88;;;26.96;42.58
18819;BME280;9537;45.594;9.294;2022-07-21T04:11:38;99701.03;;;26.94;42.13
18819;BME280;9537;45.594;9.294;2022-07-21T04:12:40;99694.56;;;26.90;42.64
18819;BME280;9537;45.594;9.294;2022-07-21T04:13:42;99698.09;;;26.86;42.77
18819;BME280;9537;45.594;9.294;2022-07-21T04:14:43;99703.78;;;26.89;42.93
18819;BME280;9537;45.594;9.294;2022-07-21T04:15:44;99705.13;;;26.87;42.75
18819;BME280;9537;45.594;9.294;2022-07-21T04:16:46;99699.19;;;26.90;42.71
18819;BME280;9537;45.594;9.294;2022-07-21T04:17:48;99693.47;;;26.91;42.25
18819;BME280;9537;45.594;9.294;2022-07-21T04:18:50;99704.03;;;26.93;42.22
18819;BME280;9537;45.594;9.294;2022-07-21T04:19:51;99699.94;;;26.95;42.20
18819;BME280;9537;45.594;9.294;2022-07-21T04:20:53;99707.00;;;26.96;41.91
18819;BME280;9537;45.594;9.294;2022-07-21T04:21:53;99704.81;;;26.99;41.99
18819;BME280;9537;45.594;9.294;2022-07-21T04:22:56;99708.91;;;26.96;42.24
18819;BME280;9537;45.594;9.294;2022-07-21T04:23:56;99703.47;;;26.96;42.20
18819;BME280;9537;45.594;9.294;2022-07-21T04:24:58;99699.94;;;26.95;42.29
18819;BME280;9537;45.594;9.294;2022-07-21T04:26:00;99711.63;;;26.96;42.54
18819;BME280;9537;45.594;9.294;2022-07-21T04:27:03;99702.66;;;26.95;42.54
18819;BME280;9537;45.594;9.294;2022-07-21T04:28:05;99698.00;;;27.01;42.36
18819;BME280;9537;45.594;9.294;2022-07-21T04:29:08;99701.78;;;27.05;42.20
18819;BME280;9537;45.594;9.294;2022-07-21T04:30:11;99700.44;;;27.08;42.21
18819;BME280;9537;45.594;9.294;2022-07-21T04:31:13;99693.41;;;27.02;42.12
18819;BME280;9537;45.594;9.294;2022-07-21T04:32:14;99693.41;;;27.02;42.10
18819;BME280;9537;45.594;9.294;2022-07-21T04:33:16;99702.66;;;26.95;42.16
18819;BME280;9537;45.594;9.294;2022-07-21T04:34:18;99701.34;;;26.93;42.13
18819;BME280;9537;45.594;9.294;2022-07-21T04:35:19;99701.34;;;26.88;42.49
18819;BME280;9537;45.594;9.294;2022-07-21T04:36:21;99703.25;;;26.87;42.49
18819;BME280;9537;45.594;9.294;2022-07-21T04:37:22;99707.06;;;26.81;42.68
18819;BME280;9537;45.594;9.294;2022-07-21T04:38:24;99702.47;;;26.82;42.53
18819;BME280;9537;45.594;9.294;2022-07-21T04:39:25;99707.91;;;26.82;42.74
18819;BME280;9537;45.594;9.294;2022-07-21T04:40:28;99706.81;;;26.78;43.37
18819;BME280;9537;45.594;9.294;2022-07-21T04:41:31;99702.50;;;26.77;43.09
18819;BME280;9537;45.594;9.294;2022-07-21T04:42:35;99704.91;;;26.78;43.36
18819;BME280;9537;45.594;9.294;2022-07-21T04:43:37;99714.69;;;26.79;42.99
18819;BME280;9537;45.594;9.294;2022-07-21T04:44:38;99711.69;;;26.81;43.27
18819;BME280;9537;45.594;9.294;2022-07-21T04:45:40;99719.00;;;26.80;43.07
18819;BME280;9537;45.594;9.294;2022-07-21T04:46:41;99713.88;;;26.79;43.33
18819;BME280;9537;45.594;9.294;2022-07-21T04:47:45;99721.47;;;26.77;43.50
18819;BME280;9537;45.594;9.294;2022-07-21T04:48:46;99713.88;;;26.79;43.36
18819;BME280;9537;45.594;9.294;2022-07-21T04:49:48;99717.91;;;26.81;43.18
18819;BME280;9537;45.594;9.294;2022-07-21T04:50:49;99708.47;;;26.79;43.25
18819;BME280;9537;45.594;9.294;2022-07-21T04:51:51;99726.31;;;26.80;43.53
18819;BME280;9537;45.594;9.294;2022-07-21T04:52:53;99716.59;;;26.73;43.41
18819;BME280;9537;45.594;9.294;2022-07-21T04:53:55;99714.44;;;26.76;43.79
18819;BME280;9537;45.594;9.294;2022-07-21T04:54:56;99714.44;;;26.76;43.95
18819;BME280;9537;45.594;9.294;2022-07-21T04:55:58;99720.38;;;26.72;44.11
18819;BME280;9537;45.594;9.294;2022-07-21T04:56:59;99721.22;;;26.73;43.65
18819;BME280;9537;45.594;9.294;2022-07-21T04:58:04;99716.06;;;26.71;43.93
18819;BME280;9537;45.594;9.294;2022-07-21T04:59:05;99716.31;;;26.75;43.93
18819;BME280;9537;45.594;9.294;2022-07-21T05:00:09;99722.81;;;26.79;43.86
18819;BME280;9537;45.594;9.294;2022-07-21T05:01:11;99721.72;;;26.80;43.78
18819;BME280;9537;45.594;9.294;2022-07-21T05:02:12;99723.06;;;26.78;43.80
18819;BME280;9537;45.594;9.294;2022-07-21T05:03:14;99728.22;;;26.79;43.95
18819;BME280;9537;45.594;9.294;2022-07-21T05:04:16;99723.88;;;26.78;44.18
18819;BME280;9537;45.594;9.294;2022-07-21T05:05:18;99716.28;;;26.80;43.89
18819;BME280;9537;45.594;9.294;2022-07-21T05:06:20;99727.38;;;26.84;44.39
18819;BME280;9537;45.594;9.294;2022-07-21T05:07:21;99726.00;;;26.86;44.15
18819;BME280;9537;45.594;9.294;2022-07-21T05:08:23;99726.81;;;26.87;43.95
18819;BME280;9537;45.594;9.294;2022-07-21T05:09:27;99727.91;;;26.86;44.21
18819;BME280;9537;45.594;9.294;2022-07-21T05:10:29;99727.91;;;26.86;44.20
18819;BME280;9537;45.594;9.294;2022-07-21T05:11:30;99730.63;;;26.86;44.16
18819;BME280;9537;45.594;9.294;2022-07-21T05:12:32;99732.22;;;26.87;44.30
18819;BME280;9537;45.594;9.294;2022-07-21T05:13:35;99730.38;;;26.82;44.46
18819;BME280;9537;45.594;9.294;2022-07-21T05:14:37;99731.19;;;26.83;44.82
18819;BME280;9537;45.594;9.294;2022-07-21T05:15:38;99728.75;;;26.81;44.83
18819;BME280;9537;45.594;9.294;2022-07-21T05:16:40;99733.88;;;26.83;44.47
18819;BME280;9537;45.594;9.294;2022-07-21T05:17:41;99733.63;;;26.84;44.65
18819;BME280;9537;45.594;9.294;2022-07-21T05:18:43;99735.25;;;26.80;44.97
18819;BME280;9537;45.594;9.294;2022-07-21T05:19:44;99736.59;;;26.83;45.39
18819;BME280;9537;45.594;9.294;2022-07-21T05:20:50;99734.69;;;26.83;45.31
18819;BME280;9537;45.594;9.294;2022-07-21T05:21:51;99734.13;;;26.86;45.28
18819;BME280;9537;45.594;9.294;2022-07-21T05:22:53;99744.97;;;26.86;45.35
18819;BME280;9537;45.594;9.294;2022-07-21T05:23:54;99739.28;;;26.88;45.49
18819;BME280;9537;45.594;9.294;2022-07-21T05:24:57;99733.88;;;26.88;45.79
18819;BME280;9537;45.594;9.294;2022-07-21T05:25:57;99742.53;;;26.90;45.72
18819;BME280;9537;45.594;9.294;2022-07-21T05:26:59;99735.47;;;26.89;45.78
18819;BME280;9537;45.594;9.294;2022-07-21T05:28:00;99737.38;;;26.93;45.47
18819;BME280;9537;45.594;9.294;2022-07-21T05:29:04;99736.81;;;26.96;45.35
18819;BME280;9537;45.594;9.294;2022-07-21T05:30:06;99734.63;;;26.99;45.07
18819;BME280;9537;45.594;9.294;2022-07-21T05:31:09;99733.00;;;26.98;45.51
18819;BME280;9537;45.594;9.294;2022-07-21T05:32:10;99731.94;;;26.99;45.91
18819;BME280;9537;45.594;9.294;2022-07-21T05:33:12;99742.72;;;27.04;45.80